createdAt,value
2017-08-01T00:00:56.162Z,99.90
2017-08-01T00:03:23.763Z,99.90
2017-08-01T00:05:52.054Z,99.90
2017-08-01T00:08:20.411Z,99.90
2017-08-01T00:10:48.654Z,99.90
2017-08-01T00:13:16.150Z,99.90
2017-08-01T00:15:44.438Z,99.90
2017-08-01T00:18:12.687Z,99.90
2017-08-01T00:20:40.264Z,99.90
2017-08-01T00:23:08.538Z,99.90
2017-08-01T00:25:36.814Z,99.90
2017-08-01T00:28:04.379Z,99.90
2017-08-01T00:30:32.641Z,99.90
2017-08-01T00:33:00.120Z,99.90
2017-08-01T00:35:28.370Z,99.90
2017-08-01T00:37:56.876Z,99.90
2017-08-01T00:40:25.129Z,99.90
2017-08-01T00:42:52.703Z,99.90
2017-08-01T00:45:20.967Z,99.90
2017-08-01T00:47:48.442Z,99.90
2017-08-01T00:50:16.704Z,99.90
2017-08-01T00:52:44.195Z,99.90
2017-08-01T00:55:11.674Z,99.90
2017-08-01T00:57:39.194Z,99.90
2017-08-01T01:00:07.474Z,99.90
2017-08-01T01:02:35.757Z,99.90
2017-08-01T01:05:04.146Z,99.90
2017-08-01T01:07:31.679Z,99.90
2017-08-01T01:09:59.965Z,99.90
2017-08-01T01:12:28.240Z,99.90
2017-08-01T01:14:56.506Z,99.90
2017-08-01T01:17:24.795Z,99.90
2017-08-01T01:19:53.066Z,99.90
2017-08-01T01:22:22.090Z,99.90
2017-08-01T01:24:49.582Z,99.90
2017-08-01T01:27:17.175Z,99.90
2017-08-01T01:29:45.455Z,99.90
2017-08-01T01:32:13.725Z,99.90
2017-08-01T01:34:42.015Z,99.90
2017-08-01T01:37:09.569Z,99.90
2017-08-01T01:39:37.837Z,99.90
2017-08-01T01:42:06.117Z,99.90
2017-08-01T01:44:34.395Z,99.90
2017-08-01T01:47:02.667Z,99.90
2017-08-01T01:49:30.952Z,99.90
2017-08-01T01:51:59.236Z,99.90
2017-08-01T01:54:27.472Z,99.90
2017-08-01T01:56:55.059Z,99.90
2017-08-01T01:59:23.335Z,99.90
2017-08-01T02:01:51.722Z,99.90
2017-08-01T02:04:19.978Z,99.90
2017-08-01T02:06:47.471Z,99.90
2017-08-01T02:09:15.009Z,99.90
2017-08-01T02:11:43.316Z,99.90
2017-08-01T02:14:10.808Z,99.90
2017-08-01T02:16:38.299Z,99.90
2017-08-01T02:19:06.578Z,99.90
2017-08-01T02:21:34.858Z,99.90
2017-08-01T02:24:03.118Z,99.90
2017-08-01T02:26:30.605Z,99.90
2017-08-01T02:28:58.098Z,99.90
2017-08-01T02:31:25.587Z,99.90
2017-08-01T02:33:53.081Z,99.90
2017-08-01T02:36:20.625Z,99.90
2017-08-01T02:38:48.903Z,99.90
2017-08-01T02:41:17.162Z,99.90
2017-08-01T02:43:44.667Z,99.90
2017-08-01T02:46:12.190Z,99.90
2017-08-01T02:48:40.460Z,99.90
2017-08-01T02:51:08.744Z,99.90
2017-08-01T02:53:36.993Z,99.90
2017-08-01T02:56:04.479Z,99.90
2017-08-01T02:58:32.758Z,99.90
2017-08-01T03:01:01.041Z,99.90
2017-08-01T03:03:28.581Z,99.90
2017-08-01T03:05:56.870Z,99.90
2017-08-01T03:08:25.134Z,99.90
2017-08-01T03:10:53.435Z,99.90
2017-08-01T03:13:20.979Z,99.90
2017-08-01T03:15:49.255Z,99.90
2017-08-01T03:18:17.527Z,99.90
2017-08-01T03:20:45.918Z,99.90
2017-08-01T03:23:14.187Z,99.90
2017-08-01T03:25:42.565Z,99.90
2017-08-01T03:28:10.848Z,99.90
2017-08-01T03:30:39.226Z,99.90
2017-08-01T03:33:07.505Z,99.90
2017-08-01T03:35:35.754Z,99.90
2017-08-01T03:38:03.332Z,99.90
2017-08-01T03:40:31.605Z,99.90
2017-08-01T03:42:59.887Z,99.90
2017-08-01T03:45:28.149Z,99.90
2017-08-01T03:47:55.650Z,99.90
2017-08-01T03:50:23.148Z,99.90
2017-08-01T03:52:50.644Z,99.90
2017-08-01T03:55:18.915Z,99.90
2017-08-01T03:57:47.179Z,99.90
2017-08-01T04:00:14.676Z,99.90
2017-08-01T04:02:42.211Z,99.90
2017-08-01T04:05:10.480Z,99.90
2017-08-01T04:07:38.754Z,99.90
2017-08-01T04:10:07.031Z,99.90
2017-08-01T04:12:35.310Z,99.90
2017-08-01T04:15:03.581Z,99.90
2017-08-01T04:17:31.114Z,99.90
2017-08-01T04:19:58.618Z,99.90
2017-08-01T04:22:26.159Z,99.90
2017-08-01T04:24:54.422Z,99.90
2017-08-01T04:27:21.915Z,99.90
2017-08-01T04:29:49.454Z,99.90
2017-08-01T04:35:10.814Z,99.90
2017-08-01T04:37:38.347Z,99.90
2017-08-01T04:40:06.624Z,99.90
2017-08-01T04:42:34.880Z,99.90
2017-08-01T04:45:03.895Z,99.90
2017-08-01T04:47:32.175Z,99.90
2017-08-01T04:50:00.454Z,99.90
2017-08-01T04:52:28.725Z,99.90
2017-08-01T04:54:57.009Z,99.90
2017-08-01T04:57:25.274Z,99.90
2017-08-01T04:59:53.538Z,99.90
2017-08-01T05:02:21.122Z,99.90
2017-08-01T05:04:49.386Z,99.90
2017-08-01T05:07:17.642Z,99.90
2017-08-01T05:09:45.226Z,99.90
2017-08-01T05:12:13.505Z,99.90
2017-08-01T05:14:42.346Z,99.90
2017-08-01T05:17:09.835Z,99.90
2017-08-01T05:19:37.311Z,99.90
2017-08-01T05:22:05.605Z,99.90
2017-08-01T05:24:33.091Z,99.90
2017-08-01T05:27:00.603Z,99.90
2017-08-01T05:29:28.851Z,99.90
2017-08-01T05:31:56.433Z,99.90
2017-08-01T05:34:24.712Z,99.90
2017-08-01T05:36:52.993Z,99.90
2017-08-01T05:39:21.251Z,99.90
2017-08-01T05:41:48.759Z,99.90
2017-08-01T05:44:16.284Z,99.90
2017-08-01T05:46:44.543Z,99.90
2017-08-01T05:49:12.116Z,99.90
2017-08-01T05:51:40.402Z,99.90
2017-08-01T05:54:09.595Z,99.90
2017-08-01T05:56:37.858Z,99.90
2017-08-01T05:59:05.335Z,99.90
2017-08-01T06:01:33.604Z,99.90
2017-08-01T06:04:02.013Z,99.90
2017-08-01T06:06:29.545Z,99.90
2017-08-01T06:08:57.581Z,99.90
2017-08-01T06:11:25.063Z,99.90
2017-08-01T06:13:54.151Z,99.90
2017-08-01T06:25:02.469Z,99.90
2017-08-01T06:27:29.987Z,99.90
2017-08-01T06:29:58.982Z,99.90
2017-08-01T06:32:28.134Z,99.90
2017-08-01T06:34:55.631Z,99.90
2017-08-01T06:37:23.125Z,99.90
2017-08-01T06:39:50.645Z,99.90
2017-08-01T06:42:24.601Z,99.90
2017-08-01T06:44:52.123Z,99.90
2017-08-01T06:47:32.825Z,99.90
2017-08-01T06:50:00.455Z,99.90
2017-08-01T06:52:28.717Z,99.90
2017-08-01T06:54:56.209Z,99.90
2017-08-01T06:57:23.756Z,99.90
2017-08-01T06:59:52.055Z,99.90
2017-08-01T07:02:19.552Z,99.90
2017-08-01T07:10:34.078Z,99.90
2017-08-01T07:13:02.335Z,99.90
2017-08-01T07:15:29.912Z,99.90
2017-08-01T07:18:02.079Z,99.90
2017-08-01T07:20:30.327Z,99.90
2017-08-01T07:22:57.806Z,99.90
2017-08-01T07:25:25.407Z,99.90
2017-08-01T07:27:53.031Z,99.90
2017-08-01T07:30:21.304Z,99.90
2017-08-01T07:32:49.566Z,99.90
2017-08-01T07:35:17.494Z,99.90
2017-08-01T07:37:45.015Z,99.90
2017-08-01T07:40:13.288Z,99.90
2017-08-01T07:42:41.599Z,99.80
2017-08-01T07:45:09.121Z,99.60
2017-08-01T07:47:37.382Z,99.50
2017-08-01T07:52:58.613Z,99.40
2017-08-01T07:55:26.197Z,99.30
2017-08-01T07:58:16.087Z,98.00
2017-08-01T08:06:31.476Z,97.50
2017-08-01T08:08:58.975Z,97.40
2017-08-01T08:11:26.511Z,96.80
2017-08-01T08:13:54.791Z,96.30
2017-08-01T08:16:23.056Z,96.20
2017-08-01T08:18:51.335Z,95.30
2017-08-01T08:21:19.578Z,95.30
2017-08-01T08:23:47.577Z,95.30
2017-08-01T08:26:15.856Z,95.80
2017-08-01T08:28:44.140Z,95.30
2017-08-01T08:31:12.406Z,95.10
2017-08-01T08:33:40.672Z,95.00
2017-08-01T08:36:08.941Z,95.00
2017-08-01T08:38:36.538Z,94.60
2017-08-01T08:41:04.082Z,94.90
2017-08-01T08:43:32.354Z,94.10
2017-08-01T08:46:00.634Z,93.90
2017-08-01T08:48:28.936Z,94.10
2017-08-01T08:50:56.467Z,93.80
2017-08-01T08:53:24.754Z,92.00
2017-08-01T08:55:53.025Z,92.50
2017-08-01T08:58:21.299Z,91.40
2017-08-01T09:00:49.550Z,91.50
2017-08-01T09:03:17.047Z,91.40
2017-08-01T09:05:44.567Z,92.20
2017-08-01T09:08:12.053Z,92.10
2017-08-01T09:10:40.330Z,92.70
2017-08-01T09:13:08.597Z,92.50
2017-08-01T09:15:36.855Z,92.40
2017-08-01T09:18:04.342Z,92.40
2017-08-01T09:20:31.906Z,92.60
2017-08-01T09:23:00.269Z,91.30
2017-08-01T09:25:28.522Z,91.50
2017-08-01T09:27:56.099Z,91.40
2017-08-01T09:30:30.234Z,91.00
2017-08-01T09:32:58.506Z,90.90
2017-08-01T09:35:26.918Z,91.20
2017-08-01T09:37:54.468Z,91.10
2017-08-01T09:40:22.004Z,90.80
2017-08-01T09:42:50.271Z,89.80
2017-08-01T09:45:18.557Z,90.50
2017-08-01T09:47:46.909Z,90.10
2017-08-01T09:50:14.487Z,90.00
2017-08-01T09:52:42.770Z,89.80
2017-08-01T09:55:11.037Z,88.40
2017-08-01T09:57:39.281Z,90.00
2017-08-01T10:00:06.889Z,90.00
2017-08-01T10:02:53.600Z,88.00
2017-08-01T10:05:21.918Z,87.90
2017-08-01T10:07:49.400Z,87.90
2017-08-01T10:10:16.884Z,87.70
2017-08-01T10:12:45.162Z,88.20
2017-08-01T10:15:13.433Z,87.10
2017-08-01T10:17:41.694Z,85.70
2017-08-01T10:20:09.263Z,85.70
2017-08-01T10:22:37.541Z,87.60
2017-08-01T10:25:05.829Z,88.10
2017-08-01T10:27:34.213Z,88.90
2017-08-01T10:30:02.476Z,86.70
2017-08-01T10:32:30.727Z,86.10
2017-08-01T10:34:58.319Z,86.20
2017-08-01T10:37:26.562Z,85.40
2017-08-01T10:39:54.170Z,85.30
2017-08-01T10:42:22.664Z,85.10
2017-08-01T10:44:50.194Z,84.80
2017-08-01T10:47:18.472Z,84.90
2017-08-01T10:49:46.735Z,86.00
2017-08-01T10:52:15.060Z,83.70
2017-08-01T10:54:42.581Z,83.70
2017-08-01T10:57:10.847Z,82.80
2017-08-01T10:59:39.575Z,81.80
2017-08-01T11:02:07.105Z,81.70
2017-08-01T11:04:34.592Z,81.60
2017-08-01T11:07:02.287Z,82.10
2017-08-01T11:09:29.761Z,83.80
2017-08-01T11:11:57.251Z,84.60
2017-08-01T11:14:24.796Z,83.30
2017-08-01T11:16:53.074Z,83.10
2017-08-01T11:19:21.355Z,83.80
2017-08-01T11:21:49.626Z,84.10
2017-08-01T11:24:17.907Z,82.50
2017-08-01T11:26:46.147Z,83.80
2017-08-01T11:29:13.634Z,83.70
2017-08-01T11:31:41.924Z,84.40
2017-08-01T11:34:10.203Z,84.10
2017-08-01T11:36:37.749Z,84.00
2017-08-01T11:39:06.022Z,84.70
2017-08-01T11:41:34.306Z,85.20
2017-08-01T11:44:02.628Z,82.00
2017-08-01T11:46:30.136Z,81.90
2017-08-01T11:48:58.422Z,82.00
2017-08-01T11:51:26.687Z,81.40
2017-08-01T11:53:54.969Z,78.30
2017-08-01T11:56:23.233Z,79.20
2017-08-01T11:58:50.806Z,79.20
2017-08-01T12:01:19.077Z,81.00
2017-08-01T12:03:47.360Z,79.40
2017-08-01T12:06:15.632Z,82.50
2017-08-01T12:08:44.725Z,84.10
2017-08-01T12:11:12.291Z,84.10
2017-08-01T12:13:40.535Z,82.90
2017-08-01T12:16:08.022Z,82.80
2017-08-01T12:18:36.308Z,83.60
2017-08-01T12:21:04.559Z,82.40
2017-08-01T12:23:32.048Z,82.40
2017-08-01T12:25:59.592Z,82.10
2017-08-01T12:28:27.870Z,80.10
2017-08-01T12:30:56.115Z,80.60
2017-08-01T12:33:23.598Z,80.60
2017-08-01T12:35:51.892Z,79.60
2017-08-01T12:38:19.441Z,79.60
2017-08-01T12:40:47.711Z,78.30
2017-08-01T12:43:16.091Z,78.60
2017-08-01T12:45:44.376Z,79.20
2017-08-01T12:48:11.857Z,79.20
2017-08-01T12:50:39.371Z,78.70
2017-08-01T12:53:06.974Z,77.40
2017-08-01T12:55:34.503Z,76.80
2017-08-01T12:58:02.785Z,76.30
2017-08-01T13:00:31.047Z,76.30
2017-08-01T13:02:59.339Z,74.00
2017-08-01T13:05:27.614Z,74.20
2017-08-01T13:07:55.867Z,72.70
2017-08-01T13:10:23.381Z,72.70
2017-08-01T13:12:50.903Z,74.90
2017-08-01T13:15:19.997Z,72.00
2017-08-01T13:17:48.278Z,71.30
2017-08-01T13:20:16.546Z,71.00
2017-08-01T13:22:44.810Z,72.80
2017-08-01T13:25:12.303Z,72.70
2017-08-01T13:27:39.837Z,69.70
2017-08-01T13:30:08.118Z,69.40
2017-08-01T13:32:36.380Z,71.70
2017-08-01T13:35:03.858Z,71.60
2017-08-01T13:37:32.126Z,67.10
2017-08-01T13:40:00.383Z,68.40
2017-08-01T13:42:27.885Z,68.40
2017-08-01T13:44:55.427Z,66.30
2017-08-01T13:47:23.785Z,63.80
2017-08-01T13:49:51.363Z,63.80
2017-08-01T13:52:19.607Z,65.70
2017-08-01T13:54:47.195Z,65.70
2017-08-01T13:57:15.463Z,71.90
2017-08-01T13:59:43.743Z,72.60
2017-08-01T14:02:11.988Z,74.20
2017-08-01T14:04:39.590Z,74.00
2017-08-01T14:07:07.855Z,77.00
2017-08-01T14:09:36.144Z,77.20
2017-08-01T14:12:04.390Z,75.90
2017-08-01T14:27:18.975Z,75.90
2017-08-01T14:29:46.512Z,84.80
2017-08-01T14:32:14.475Z,85.30
2017-08-01T14:34:42.729Z,86.60
2017-08-01T14:37:11.351Z,86.50
2017-08-01T14:39:39.624Z,86.50
2017-08-01T14:42:09.755Z,86.90
2017-08-01T14:44:37.244Z,86.70
2017-08-01T14:47:04.753Z,87.00
2017-08-01T14:49:33.034Z,90.30
2017-08-01T14:52:01.315Z,90.90
2017-08-01T14:54:29.585Z,91.30
2017-08-01T14:56:57.869Z,91.90
2017-08-01T14:59:26.143Z,92.00
2017-08-01T15:01:54.404Z,92.40
2017-08-01T15:04:22.691Z,92.70
2017-08-01T15:06:50.957Z,92.60
2017-08-01T15:09:19.273Z,93.30
2017-08-01T15:11:46.767Z,92.90
2017-08-01T15:14:14.364Z,92.70
2017-08-01T15:16:42.623Z,93.00
2017-08-01T15:19:10.207Z,92.90
2017-08-01T15:21:38.475Z,93.30
2017-08-01T15:24:06.745Z,93.00
2017-08-01T15:26:35.003Z,92.40
2017-08-01T15:29:02.489Z,92.10
2017-08-01T15:31:30.749Z,92.30
2017-08-01T15:33:58.222Z,92.30
2017-08-01T15:36:32.555Z,92.20
2017-08-01T15:39:00.036Z,92.10
2017-08-01T15:41:27.550Z,93.30
2017-08-01T15:43:55.836Z,94.00
2017-08-01T15:46:24.217Z,94.20
2017-08-01T15:48:52.464Z,94.60
2017-08-01T15:51:20.041Z,94.70
2017-08-01T15:53:48.298Z,94.50
2017-08-01T15:56:15.800Z,94.10
2017-08-01T15:58:43.337Z,93.90
2017-08-01T16:01:11.623Z,93.20
2017-08-01T16:03:39.886Z,93.50
2017-08-01T16:06:08.168Z,92.60
2017-08-01T16:08:36.428Z,92.30
2017-08-01T16:11:03.898Z,92.20
2017-08-01T16:13:32.170Z,91.00
2017-08-01T16:16:00.445Z,91.00
2017-08-01T16:18:27.927Z,91.00
2017-08-01T16:20:55.495Z,91.00
2017-08-01T16:23:28.962Z,91.20
2017-08-01T16:25:57.212Z,92.90
2017-08-01T16:28:24.699Z,92.80
2017-08-01T16:30:52.947Z,93.10
2017-08-01T16:33:20.438Z,92.90
2017-08-01T16:35:51.782Z,95.30
2017-08-01T16:38:20.051Z,94.50
2017-08-01T16:40:47.616Z,94.40
2017-08-01T16:43:15.172Z,94.60
2017-08-01T16:45:43.463Z,93.20
2017-08-01T16:48:11.030Z,93.20
2017-08-01T16:50:38.538Z,94.60
2017-08-01T16:53:06.036Z,94.60
2017-08-01T16:55:34.304Z,95.20
2017-08-01T16:58:02.592Z,95.40
2017-08-01T17:00:30.141Z,95.20
2017-08-01T17:02:58.411Z,94.90
2017-08-01T17:05:25.913Z,94.90
2017-08-01T17:07:53.431Z,95.10
2017-08-01T17:10:21.685Z,95.60
2017-08-01T17:12:49.183Z,95.60
2017-08-01T17:15:17.437Z,96.00
2017-08-01T17:17:45.960Z,96.20
2017-08-01T17:20:15.881Z,96.10
2017-08-01T17:22:43.943Z,96.00
2017-08-01T17:25:12.037Z,95.70
2017-08-01T17:27:42.890Z,98.60
2017-08-01T17:30:10.480Z,99.90
2017-08-01T17:32:38.761Z,99.90
2017-08-01T17:35:07.040Z,99.90
2017-08-01T17:37:35.285Z,99.90
2017-08-01T17:40:02.786Z,99.90
2017-08-01T17:42:30.323Z,99.90
2017-08-01T17:44:58.593Z,99.90
2017-08-01T17:47:26.073Z,99.90
2017-08-01T17:49:54.340Z,99.90
2017-08-01T17:52:23.397Z,99.90
2017-08-01T17:54:50.899Z,99.90
2017-08-01T17:57:19.175Z,99.90
2017-08-01T17:59:46.642Z,99.90
2017-08-01T18:02:14.131Z,99.90
2017-08-01T18:04:41.627Z,99.90
2017-08-01T18:07:09.102Z,99.90
2017-08-01T18:09:37.536Z,99.90
2017-08-01T18:12:05.136Z,99.90
2017-08-01T18:14:33.620Z,99.90
2017-08-01T18:17:01.994Z,99.90
2017-08-01T18:19:30.368Z,99.90
2017-08-01T18:21:57.837Z,99.90
2017-08-01T18:24:26.099Z,99.90
2017-08-01T18:26:53.666Z,99.90
2017-08-01T18:29:21.954Z,99.90
2017-08-01T18:31:50.222Z,99.90
2017-08-01T18:34:18.486Z,99.90
2017-08-01T18:36:45.968Z,99.90
2017-08-01T18:39:13.445Z,99.90
2017-08-01T18:41:40.961Z,99.90
2017-08-01T18:44:08.433Z,99.90
2017-08-01T18:46:36.687Z,99.90
2017-08-01T18:49:04.270Z,99.90
2017-08-01T18:51:32.538Z,99.90
2017-08-01T18:54:00.818Z,99.90
2017-08-01T18:56:29.095Z,99.90
2017-08-01T18:58:57.381Z,99.90
2017-08-01T19:01:25.626Z,99.90
2017-08-01T19:03:53.296Z,99.90
2017-08-01T19:06:20.863Z,99.90
2017-08-01T19:08:48.435Z,99.90
2017-08-01T19:11:16.695Z,99.90
2017-08-01T19:13:44.976Z,99.90
2017-08-01T19:16:13.259Z,99.90
2017-08-01T19:18:41.528Z,99.90
2017-08-01T19:21:09.097Z,99.90
2017-08-01T19:23:37.372Z,99.90
2017-08-01T19:26:11.380Z,99.90
2017-08-01T19:28:39.675Z,99.90
2017-08-01T19:31:07.210Z,99.90
2017-08-01T19:33:34.766Z,99.90
2017-08-01T19:36:02.342Z,99.90
2017-08-01T19:38:30.666Z,99.90
2017-08-01T19:40:58.172Z,99.90
2017-08-01T19:43:26.441Z,99.90
2017-08-01T19:45:54.007Z,99.90
2017-08-01T19:48:22.385Z,99.90
2017-08-01T19:50:50.663Z,99.90
2017-08-01T19:53:18.929Z,99.90
2017-08-01T19:55:46.495Z,99.90
2017-08-01T19:58:14.775Z,99.90
2017-08-01T20:00:43.058Z,99.90
2017-08-01T20:03:11.392Z,99.90
2017-08-01T20:05:38.990Z,99.90
2017-08-01T20:08:06.554Z,99.90
2017-08-01T20:10:34.833Z,99.90
2017-08-01T20:13:03.106Z,99.90
2017-08-01T20:15:31.377Z,99.90
2017-08-01T20:17:58.933Z,99.90
2017-08-01T20:20:27.184Z,99.90
2017-08-01T20:22:54.773Z,99.90
2017-08-01T20:25:23.049Z,99.90
2017-08-01T20:27:53.561Z,99.90
2017-08-01T20:30:21.050Z,99.90
2017-08-01T20:32:49.415Z,99.90
2017-08-01T20:35:17.925Z,99.90
2017-08-01T20:37:45.418Z,99.90
2017-08-01T20:40:12.909Z,99.90
2017-08-01T20:42:41.199Z,99.90
2017-08-01T20:45:09.523Z,99.90
2017-08-01T20:47:37.030Z,99.90
2017-08-01T20:50:05.414Z,99.90
2017-08-01T20:52:33.674Z,99.90
2017-08-01T20:55:01.235Z,99.90
2017-08-01T20:57:28.802Z,99.90
2017-08-01T20:59:57.078Z,99.90
2017-08-01T21:02:25.328Z,99.90
2017-08-01T21:04:52.909Z,99.90
2017-08-01T21:07:21.187Z,99.90
2017-08-01T21:09:50.540Z,99.90
2017-08-01T21:12:18.026Z,99.90
2017-08-01T21:14:45.606Z,99.90
2017-08-01T21:17:13.882Z,99.90
2017-08-01T21:19:42.165Z,99.90
2017-08-01T21:22:10.412Z,99.90
2017-08-01T21:24:37.890Z,99.90
2017-08-01T21:27:06.177Z,99.90
2017-08-01T21:29:34.410Z,99.90
2017-08-01T21:32:02.011Z,99.90
2017-08-01T21:34:30.254Z,99.90
2017-08-01T21:36:57.843Z,99.90
2017-08-01T21:39:26.125Z,99.90
2017-08-01T21:41:54.465Z,99.90
2017-08-01T21:44:21.972Z,99.90
2017-08-01T21:46:53.601Z,99.90
2017-08-01T21:49:21.081Z,99.90
2017-08-01T21:51:49.327Z,99.90
2017-08-01T21:54:16.795Z,99.90
2017-08-01T21:56:44.285Z,99.90
2017-08-01T21:59:11.823Z,99.90
2017-08-01T22:01:40.095Z,99.90
2017-08-01T22:04:08.337Z,99.90
2017-08-01T22:06:35.818Z,99.90
2017-08-01T22:09:03.338Z,99.90
2017-08-01T22:11:30.843Z,99.90
2017-08-01T22:13:58.355Z,99.90
2017-08-01T22:16:25.864Z,99.90
2017-08-01T22:18:54.139Z,99.90
2017-08-01T22:21:22.409Z,99.90
2017-08-01T22:23:49.905Z,99.90
2017-08-01T22:26:17.425Z,99.90
2017-08-01T22:28:45.091Z,99.90
2017-08-01T22:31:13.365Z,99.90
2017-08-01T22:33:40.936Z,99.90
2017-08-01T22:36:09.227Z,99.90
2017-08-01T22:38:36.803Z,99.90
2017-08-01T22:41:04.320Z,99.90
2017-08-01T22:43:31.818Z,99.90
2017-08-01T22:45:59.336Z,99.90
2017-08-01T22:48:27.612Z,99.90
2017-08-01T22:50:55.889Z,99.90
2017-08-01T22:53:24.286Z,99.90
2017-08-01T22:55:52.638Z,99.90
2017-08-01T22:58:20.199Z,99.90
2017-08-01T23:00:48.421Z,99.90
2017-08-01T23:03:15.903Z,99.90
2017-08-01T23:05:43.403Z,99.90
2017-08-01T23:08:11.643Z,99.90
2017-08-01T23:10:39.143Z,99.90
2017-08-01T23:13:07.409Z,99.90
2017-08-01T23:15:35.693Z,99.90
2017-08-01T23:18:03.251Z,99.90
2017-08-01T23:20:31.490Z,99.90
2017-08-01T23:22:58.980Z,99.90
2017-08-01T23:25:27.257Z,99.90
2017-08-01T23:27:55.524Z,99.90
2017-08-01T23:30:23.786Z,99.90
2017-08-01T23:32:51.369Z,99.90
2017-08-01T23:35:19.646Z,99.90
2017-08-01T23:37:47.908Z,99.90
2017-08-01T23:40:15.481Z,99.90
2017-08-01T23:42:43.720Z,99.90
2017-08-01T23:45:11.220Z,99.90
2017-08-01T23:47:39.490Z,99.90
2017-08-01T23:50:07.773Z,99.90
2017-08-01T23:52:36.051Z,99.90
2017-08-01T23:55:04.434Z,99.90
2017-08-01T23:57:32.668Z,99.90
